createdAt,value
2023-02-03T00:00:41.577Z,99.99
2023-02-03T00:01:41.507Z,99.99
2023-02-03T00:02:41.529Z,99.99
2023-02-03T00:03:41.456Z,99.99
2023-02-03T00:04:41.443Z,99.99
2023-02-03T00:05:41.465Z,99.99
2023-02-03T00:06:41.420Z,99.99
2023-02-03T00:07:41.447Z,99.99
2023-02-03T00:08:41.397Z,99.99
2023-02-03T00:09:41.399Z,99.99
2023-02-03T00:10:41.374Z,99.99
2023-02-03T00:11:41.402Z,99.99
2023-02-03T00:12:41.408Z,99.99
2023-02-03T00:13:41.361Z,99.99
2023-02-03T00:14:41.339Z,99.99
2023-02-03T00:15:41.323Z,99.99
2023-02-03T00:16:41.404Z,99.99
2023-02-03T00:17:41.331Z,99.99
2023-02-03T00:18:41.295Z,99.99
2023-02-03T00:19:41.299Z,99.99
2023-02-03T00:20:42.144Z,99.99
2023-02-03T00:21:41.284Z,99.99
2023-02-03T00:22:41.248Z,99.99
2023-02-03T00:23:41.802Z,99.99
2023-02-03T00:24:41.242Z,99.99
2023-02-03T00:25:41.224Z,99.99
2023-02-03T00:26:41.213Z,99.99
2023-02-03T00:27:41.248Z,99.99
2023-02-03T00:28:41.291Z,99.99
2023-02-03T00:29:41.182Z,99.99
2023-02-03T00:30:41.168Z,99.99
2023-02-03T00:31:41.297Z,99.99
2023-02-03T00:32:41.201Z,99.99
2023-02-03T00:33:41.135Z,99.99
2023-02-03T00:34:41.145Z,99.99
2023-02-03T00:35:41.123Z,99.99
2023-02-03T00:36:42.983Z,99.99
2023-02-03T00:37:41.116Z,99.99
2023-02-03T00:38:41.095Z,99.99
2023-02-03T00:39:41.093Z,99.99
2023-02-03T00:40:41.066Z,99.99
2023-02-03T00:41:41.194Z,99.99
2023-02-03T00:42:41.059Z,99.99
2023-02-03T00:43:41.083Z,99.99
2023-02-03T00:44:41.045Z,99.99
2023-02-03T00:45:41.043Z,99.99
2023-02-03T00:46:41.022Z,99.99
2023-02-03T00:47:41.016Z,99.99
2023-02-03T00:48:40.982Z,99.99
2023-02-03T00:49:40.955Z,99.99
2023-02-03T00:50:40.942Z,99.99
2023-02-03T00:51:40.978Z,99.99
2023-02-03T00:52:40.922Z,99.99
2023-02-03T00:53:40.919Z,99.99
2023-02-03T00:54:40.956Z,99.99
2023-02-03T00:55:40.891Z,99.99
2023-02-03T00:56:40.975Z,99.99
2023-02-03T00:57:40.908Z,99.99
2023-02-03T00:58:40.916Z,99.99
2023-02-03T00:59:40.884Z,99.99
2023-02-03T01:00:41.368Z,99.99
2023-02-03T01:01:40.833Z,99.99
2023-02-03T01:02:40.921Z,99.99
2023-02-03T01:03:40.814Z,99.99
2023-02-03T01:04:40.798Z,99.99
2023-02-03T01:05:40.784Z,99.99
2023-02-03T01:06:40.802Z,99.99
2023-02-03T01:07:40.772Z,99.99
2023-02-03T01:08:40.767Z,99.99
2023-02-03T01:09:40.738Z,99.99
2023-02-03T01:10:40.751Z,99.99
2023-02-03T01:11:40.768Z,99.99
2023-02-03T01:12:40.705Z,99.99
2023-02-03T01:13:40.709Z,99.99
2023-02-03T01:14:40.704Z,99.99
2023-02-03T01:15:40.698Z,99.99
2023-02-03T01:16:40.719Z,99.99
2023-02-03T01:17:40.672Z,99.99
2023-02-03T01:18:40.640Z,99.99
2023-02-03T01:19:40.707Z,99.99
2023-02-03T01:20:40.635Z,99.99
2023-02-03T01:21:40.618Z,99.99
2023-02-03T01:22:40.624Z,99.99
2023-02-03T01:23:40.599Z,99.99
2023-02-03T01:24:40.591Z,99.99
2023-02-03T01:25:40.599Z,99.99
2023-02-03T01:26:40.585Z,99.99
2023-02-03T01:27:40.583Z,99.99
2023-02-03T01:28:40.550Z,99.99
2023-02-03T01:29:40.577Z,99.99
2023-02-03T01:30:40.625Z,99.99
2023-02-03T01:31:40.672Z,99.99
2023-02-03T01:32:40.536Z,99.99
2023-02-03T01:33:40.483Z,99.99
2023-02-03T01:34:40.491Z,99.99
2023-02-03T01:35:40.451Z,99.99
2023-02-03T01:36:40.518Z,99.99
2023-02-03T01:37:40.455Z,99.99
2023-02-03T01:38:40.425Z,99.99
2023-02-03T01:39:40.431Z,99.99
2023-02-03T01:40:40.411Z,99.99
2023-02-03T01:41:40.401Z,99.99
2023-02-03T01:42:40.414Z,99.99
2023-02-03T01:43:40.414Z,99.99
2023-02-03T01:44:40.412Z,99.99
2023-02-03T01:45:40.386Z,99.99
2023-02-03T01:46:40.385Z,99.99
2023-02-03T01:47:40.359Z,99.99
2023-02-03T01:48:40.316Z,99.99
2023-02-03T01:49:40.361Z,99.99
2023-02-03T01:50:40.295Z,99.99
2023-02-03T01:51:40.293Z,99.99
2023-02-03T01:52:40.288Z,99.99
2023-02-03T01:53:40.280Z,99.99
2023-02-03T01:54:40.390Z,99.99
2023-02-03T01:55:40.263Z,99.99
2023-02-03T01:56:40.247Z,99.99
2023-02-03T01:57:40.228Z,99.99
2023-02-03T01:58:40.246Z,99.99
2023-02-03T01:59:40.228Z,99.99
2023-02-03T02:00:40.218Z,99.99
2023-02-03T02:01:40.257Z,99.99
2023-02-03T02:02:40.287Z,99.99
2023-02-03T02:03:40.210Z,99.99
2023-02-03T02:04:40.162Z,99.99
2023-02-03T02:05:40.158Z,99.99
2023-02-03T02:06:40.146Z,99.99
2023-02-03T02:07:40.128Z,99.99
2023-02-03T02:08:40.123Z,99.99
2023-02-03T02:09:40.133Z,99.99
2023-02-03T02:10:40.084Z,99.99
2023-02-03T02:11:40.085Z,99.99
2023-02-03T02:12:40.178Z,99.99
2023-02-03T02:13:40.079Z,99.99
2023-02-03T02:14:40.047Z,99.99
2023-02-03T02:15:40.068Z,99.99
2023-02-03T02:16:40.019Z,99.99
2023-02-03T02:17:40.025Z,99.99
2023-02-03T02:18:40.053Z,99.99
2023-02-03T02:19:40.017Z,99.99
2023-02-03T02:20:40.002Z,99.99
2023-02-03T02:21:39.983Z,99.99
2023-02-03T02:22:39.954Z,99.99
2023-02-03T02:23:39.948Z,99.99
2023-02-03T02:24:39.929Z,99.99
2023-02-03T02:25:39.974Z,99.99
2023-02-03T02:26:39.930Z,99.99
2023-02-03T02:27:39.906Z,99.99
2023-02-03T02:28:39.891Z,99.99
2023-02-03T02:29:39.901Z,99.90
2023-02-03T02:30:39.961Z,99.79
2023-02-03T02:31:40.034Z,99.90
2023-02-03T02:32:39.852Z,99.99
2023-02-03T02:33:39.843Z,99.94
2023-02-03T02:34:39.831Z,99.73
2023-02-03T02:35:40.723Z,99.84
2023-02-03T02:36:39.809Z,99.94
2023-02-03T02:37:39.796Z,99.94
2023-02-03T02:38:39.791Z,99.73
2023-02-03T02:39:39.793Z,99.73
2023-02-03T02:40:39.763Z,99.62
2023-02-03T02:41:39.758Z,99.84
2023-02-03T02:42:39.750Z,99.84
2023-02-03T02:43:39.737Z,99.73
2023-02-03T02:44:39.789Z,99.73
2023-02-03T02:45:39.704Z,99.84
2023-02-03T02:46:39.834Z,99.94
2023-02-03T02:47:39.702Z,99.62
2023-02-03T02:48:39.682Z,99.73
2023-02-03T02:49:39.676Z,99.62
2023-02-03T02:50:39.657Z,99.62
2023-02-03T02:51:39.706Z,99.84
2023-02-03T02:52:39.639Z,99.94
2023-02-03T02:53:39.635Z,99.99
2023-02-03T02:54:39.670Z,99.99
2023-02-03T02:55:39.605Z,99.99
2023-02-03T02:56:39.620Z,99.73
2023-02-03T02:57:39.613Z,99.30
2023-02-03T02:58:39.614Z,99.19
2023-02-03T02:59:39.566Z,99.52
2023-02-03T03:00:39.557Z,99.52
2023-02-03T03:01:39.638Z,99.52
2023-02-03T03:02:39.546Z,99.41
2023-02-03T03:03:39.515Z,99.35
2023-02-03T03:04:39.563Z,99.35
2023-02-03T03:05:39.495Z,99.35
2023-02-03T03:06:39.496Z,99.24
2023-02-03T03:07:39.483Z,99.24
2023-02-03T03:08:39.475Z,99.46
2023-02-03T03:09:39.481Z,99.56
2023-02-03T03:10:39.447Z,99.46
2023-02-03T03:11:39.463Z,98.93
2023-02-03T03:12:39.421Z,98.93
2023-02-03T03:13:39.517Z,98.97
2023-02-03T03:14:39.433Z,99.03
2023-02-03T03:15:39.458Z,98.97
2023-02-03T03:16:39.408Z,98.97
2023-02-03T03:17:39.399Z,98.97
2023-02-03T03:18:39.374Z,99.07
2023-02-03T03:19:39.364Z,99.18
2023-02-03T03:20:39.335Z,99.18
2023-02-03T03:21:39.352Z,98.86
2023-02-03T03:22:39.391Z,98.75
2023-02-03T03:23:39.379Z,98.75
2023-02-03T03:24:39.298Z,98.65
2023-02-03T03:25:39.317Z,98.65
2023-02-03T03:26:39.331Z,98.65
2023-02-03T03:27:39.300Z,98.44
2023-02-03T03:28:39.326Z,98.48
2023-02-03T03:29:39.240Z,98.48
2023-02-03T03:30:39.290Z,98.48
2023-02-03T03:31:39.401Z,98.38
2023-02-03T03:32:39.196Z,98.16
2023-02-03T03:33:39.204Z,98.05
2023-02-03T03:34:39.228Z,98.16
2023-02-03T03:35:39.317Z,98.38
2023-02-03T03:36:39.203Z,98.38
2023-02-03T03:37:39.165Z,98.48
2023-02-03T03:38:39.146Z,98.59
2023-02-03T03:39:39.132Z,98.59
2023-02-03T03:40:39.149Z,98.48
2023-02-03T03:41:39.124Z,98.27
2023-02-03T03:42:39.114Z,98.27
2023-02-03T03:43:39.098Z,98.27
2023-02-03T03:44:39.072Z,98.38
2023-02-03T03:45:39.075Z,98.48
2023-02-03T03:46:39.145Z,98.59
2023-02-03T03:47:39.074Z,97.95
2023-02-03T03:48:39.064Z,97.89
2023-02-03T03:49:39.036Z,97.89
2023-02-03T03:50:39.016Z,97.99
2023-02-03T03:51:39.022Z,98.21
2023-02-03T03:52:39.037Z,97.99
2023-02-03T03:53:38.976Z,98.10
2023-02-03T03:54:38.963Z,98.10
2023-02-03T03:55:38.980Z,98.10
2023-02-03T03:56:38.944Z,98.21
2023-02-03T03:57:38.969Z,98.21
2023-02-03T03:58:38.939Z,98.21
2023-02-03T03:59:38.925Z,98.10
2023-02-03T04:00:38.908Z,97.99
2023-02-03T04:01:39.164Z,97.89
2023-02-03T04:02:39.025Z,97.99
2023-02-03T04:03:38.872Z,98.21
2023-02-03T04:04:38.875Z,98.32
2023-02-03T04:05:38.855Z,98.21
2023-02-03T04:06:38.846Z,98.10
2023-02-03T04:07:38.860Z,98.21
2023-02-03T04:08:38.827Z,98.21
2023-02-03T04:09:38.843Z,98.21
2023-02-03T04:10:38.826Z,97.99
2023-02-03T04:11:38.783Z,98.21
2023-02-03T04:12:38.777Z,98.32
2023-02-03T04:13:38.834Z,98.32
2023-02-03T04:14:39.045Z,98.32
2023-02-03T04:15:38.745Z,98.91
2023-02-03T04:16:38.734Z,97.99
2023-02-03T04:17:38.727Z,98.21
2023-02-03T04:18:38.725Z,98.21
2023-02-03T04:19:38.696Z,97.78
2023-02-03T04:20:38.699Z,97.67
2023-02-03T04:21:38.714Z,97.46
2023-02-03T04:22:38.669Z,97.36
2023-02-03T04:23:38.669Z,97.46
2023-02-03T04:24:38.644Z,97.57
2023-02-03T04:25:38.644Z,97.67
2023-02-03T04:26:38.655Z,97.78
2023-02-03T04:27:38.661Z,97.99
2023-02-03T04:28:38.615Z,98.10
2023-02-03T04:29:38.598Z,97.99
2023-02-03T04:30:38.629Z,97.78
2023-02-03T04:31:38.677Z,97.78
2023-02-03T04:32:38.553Z,97.89
2023-02-03T04:33:38.586Z,97.78
2023-02-03T04:34:38.539Z,97.78
2023-02-03T04:35:38.523Z,97.67
2023-02-03T04:36:38.601Z,97.67
2023-02-03T04:37:38.521Z,97.67
2023-02-03T04:38:38.499Z,97.72
2023-02-03T04:39:38.481Z,97.83
2023-02-03T04:40:38.471Z,97.93
2023-02-03T04:41:38.474Z,97.83
2023-02-03T04:42:38.470Z,97.72
2023-02-03T04:43:38.453Z,97.72
2023-02-03T04:44:38.423Z,97.61
2023-02-03T04:45:38.463Z,97.40
2023-02-03T04:46:38.409Z,97.40
2023-02-03T04:47:38.424Z,97.40
2023-02-03T04:48:38.392Z,97.40
2023-02-03T04:49:38.377Z,97.50
2023-02-03T04:50:39.282Z,97.61
2023-02-03T04:51:38.383Z,97.72
2023-02-03T04:52:38.375Z,97.50
2023-02-03T04:53:38.359Z,97.50
2023-02-03T04:54:38.342Z,97.40
2023-02-03T04:55:38.318Z,97.08
2023-02-03T04:56:38.355Z,97.19
2023-02-03T04:57:38.307Z,97.19
2023-02-03T04:58:38.286Z,96.97
2023-02-03T04:59:38.288Z,96.66
2023-02-03T05:00:38.317Z,96.66
2023-02-03T05:01:38.252Z,96.87
2023-02-03T05:02:38.276Z,96.97
2023-02-03T05:03:38.313Z,97.08
2023-02-03T05:04:38.217Z,97.13
2023-02-03T05:05:38.213Z,97.23
2023-02-03T05:06:38.259Z,97.08
2023-02-03T05:07:38.189Z,96.97
2023-02-03T05:08:38.169Z,96.97
2023-02-03T05:09:38.169Z,96.87
2023-02-03T05:10:38.152Z,96.87
2023-02-03T05:11:38.182Z,96.87
2023-02-03T05:12:38.134Z,96.91
2023-02-03T05:13:38.176Z,96.91
2023-02-03T05:14:38.134Z,97.02
2023-02-03T05:15:38.110Z,96.81
2023-02-03T05:16:38.176Z,96.81
2023-02-03T05:17:38.068Z,96.91
2023-02-03T05:18:38.105Z,97.13
2023-02-03T05:19:38.065Z,96.91
2023-02-03T05:20:38.045Z,96.81
2023-02-03T05:21:38.031Z,96.70
2023-02-03T05:22:38.041Z,96.81
2023-02-03T05:23:38.052Z,97.02
2023-02-03T05:24:38.012Z,97.13
2023-02-03T05:25:38.067Z,97.23
2023-02-03T05:26:37.998Z,97.23
2023-02-03T05:27:38.034Z,97.23
2023-02-03T05:28:38.027Z,97.34
2023-02-03T05:29:37.965Z,97.30
2023-02-03T05:30:37.955Z,96.97
2023-02-03T05:31:37.968Z,97.08
2023-02-03T05:32:37.913Z,96.97
2023-02-03T05:33:37.920Z,96.87
2023-02-03T05:34:37.919Z,96.81
2023-02-03T05:35:37.892Z,96.81
2023-02-03T05:36:37.866Z,97.02
2023-02-03T05:37:37.863Z,97.02
2023-02-03T05:38:37.860Z,97.19
2023-02-03T05:39:37.868Z,96.44
2023-02-03T05:40:37.845Z,96.48
2023-02-03T05:41:37.882Z,96.76
2023-02-03T05:42:37.824Z,96.87
2023-02-03T05:43:37.804Z,96.97
2023-02-03T05:44:37.804Z,96.87
2023-02-03T05:45:37.817Z,96.87
2023-02-03T05:46:37.779Z,96.97
2023-02-03T05:47:37.791Z,96.66
2023-02-03T05:48:37.749Z,96.55
2023-02-03T05:49:37.757Z,96.44
2023-02-03T05:50:38.779Z,96.66
2023-02-03T05:51:37.735Z,96.55
2023-02-03T05:52:37.700Z,96.44
2023-02-03T05:53:37.690Z,96.38
2023-02-03T05:54:37.710Z,96.38
2023-02-03T05:55:37.675Z,96.38
2023-02-03T05:56:37.670Z,96.59
2023-02-03T05:57:37.673Z,96.59
2023-02-03T05:58:37.635Z,96.27
2023-02-03T05:59:37.661Z,96.48
2023-02-03T06:00:37.604Z,96.59
2023-02-03T06:01:37.636Z,96.59
2023-02-03T06:02:37.601Z,96.59
2023-02-03T06:03:37.638Z,96.70
2023-02-03T06:04:37.652Z,96.70
2023-02-03T06:05:37.556Z,96.91
2023-02-03T06:06:37.556Z,97.02
2023-02-03T06:07:37.562Z,97.02
2023-02-03T06:08:37.527Z,97.06
2023-02-03T06:09:37.542Z,96.91
2023-02-03T06:10:37.514Z,97.02
2023-02-03T06:11:37.498Z,97.02
2023-02-03T06:12:37.510Z,96.81
2023-02-03T06:13:37.474Z,96.59
2023-02-03T06:14:37.505Z,96.70
2023-02-03T06:15:37.467Z,96.70
2023-02-03T06:16:37.528Z,96.81
2023-02-03T06:17:37.433Z,96.74
2023-02-03T06:18:37.424Z,96.85
2023-02-03T06:19:37.404Z,97.06
2023-02-03T06:20:37.416Z,97.17
2023-02-03T06:21:37.393Z,97.17
2023-02-03T06:22:37.423Z,97.17
2023-02-03T06:23:37.375Z,96.95
2023-02-03T06:24:37.382Z,96.74
2023-02-03T06:25:37.340Z,96.95
2023-02-03T06:26:37.339Z,97.17
2023-02-03T06:27:37.366Z,97.27
2023-02-03T06:28:37.337Z,97.38
2023-02-03T06:29:37.309Z,97.38
2023-02-03T06:30:37.366Z,97.44
2023-02-03T06:31:37.486Z,97.13
2023-02-03T06:32:37.311Z,97.02
2023-02-03T06:33:37.322Z,96.85
2023-02-03T06:34:37.281Z,96.85
2023-02-03T06:35:37.246Z,97.06
2023-02-03T06:36:37.258Z,97.06
2023-02-03T06:37:37.220Z,97.06
2023-02-03T06:38:37.215Z,97.06
2023-02-03T06:39:37.228Z,97.44
2023-02-03T06:40:37.278Z,97.76
2023-02-03T06:41:37.170Z,97.13
2023-02-03T06:42:37.167Z,96.70
2023-02-03T06:43:37.150Z,96.70
2023-02-03T06:44:37.189Z,96.91
2023-02-03T06:45:37.139Z,97.55
2023-02-03T06:46:37.166Z,97.44
2023-02-03T06:47:37.145Z,96.38
2023-02-03T06:48:37.096Z,96.27
2023-02-03T06:49:37.115Z,96.27
2023-02-03T06:50:37.131Z,96.38
2023-02-03T06:51:37.090Z,96.53
2023-02-03T06:52:37.063Z,96.74
2023-02-03T06:53:37.048Z,96.74
2023-02-03T06:54:37.042Z,96.85
2023-02-03T06:55:37.062Z,96.85
2023-02-03T06:56:37.016Z,96.85
2023-02-03T06:57:37.006Z,97.17
2023-02-03T06:58:37.003Z,97.38
2023-02-03T06:59:36.976Z,97.06
2023-02-03T07:00:37.011Z,96.64
2023-02-03T07:01:37.020Z,96.31
2023-02-03T07:02:36.991Z,96.42
2023-02-03T07:03:36.955Z,96.64
2023-02-03T07:04:36.928Z,96.74
2023-02-03T07:05:37.875Z,96.74
2023-02-03T07:06:36.918Z,96.53
2023-02-03T07:07:36.921Z,96.53
2023-02-03T07:08:36.899Z,96.85
2023-02-03T07:09:36.880Z,96.85
2023-02-03T07:10:36.903Z,96.64
2023-02-03T07:11:36.852Z,96.64
2023-02-03T07:12:36.949Z,96.64
2023-02-03T07:13:36.844Z,96.53
2023-02-03T07:14:36.825Z,96.31
2023-02-03T07:15:36.839Z,96.53
2023-02-03T07:16:36.860Z,96.42
2023-02-03T07:17:36.798Z,96.53
2023-02-03T07:18:46.853Z,96.42
2023-02-03T07:19:36.780Z,96.31
2023-02-03T07:20:36.787Z,96.31
2023-02-03T07:21:36.776Z,96.42
2023-02-03T07:22:36.774Z,96.64
2023-02-03T07:23:36.734Z,96.53
2023-02-03T07:24:36.732Z,96.53
2023-02-03T07:25:36.727Z,96.53
2023-02-03T07:26:36.734Z,96.53
2023-02-03T07:27:36.723Z,96.53
2023-02-03T07:28:36.705Z,96.64
2023-02-03T07:29:36.680Z,96.64
2023-02-03T07:30:37.553Z,96.53
2023-02-03T07:31:36.814Z,96.53
2023-02-03T07:32:36.646Z,96.53
2023-02-03T07:33:36.619Z,96.64
2023-02-03T07:34:36.847Z,96.64
2023-02-03T07:35:36.786Z,96.64
2023-02-03T07:36:36.589Z,96.53
2023-02-03T07:37:36.608Z,96.53
2023-02-03T07:38:36.591Z,96.53
2023-02-03T07:39:36.553Z,96.64
2023-02-03T07:40:36.549Z,96.95
2023-02-03T07:41:36.565Z,96.95
2023-02-03T07:42:36.535Z,96.42
2023-02-03T07:43:36.573Z,96.31
2023-02-03T07:44:36.524Z,96.21
2023-02-03T07:45:36.683Z,96.42
2023-02-03T07:46:36.668Z,96.42
2023-02-03T07:47:36.467Z,96.64
2023-02-03T07:48:36.518Z,96.85
2023-02-03T07:49:36.535Z,96.85
2023-02-03T07:50:36.479Z,96.74
2023-02-03T07:51:36.557Z,96.53
2023-02-03T07:52:36.466Z,96.42
2023-02-03T07:53:36.440Z,96.59
2023-02-03T07:54:36.405Z,96.42
2023-02-03T07:55:36.390Z,96.21
2023-02-03T07:56:36.440Z,96.31
2023-02-03T07:57:36.384Z,96.53
2023-02-03T07:58:36.398Z,96.31
2023-02-03T07:59:36.344Z,96.31
2023-02-03T08:00:36.353Z,96.42
2023-02-03T08:01:36.409Z,96.74
2023-02-03T08:02:37.120Z,96.48
2023-02-03T08:03:36.496Z,96.48
2023-02-03T08:04:36.363Z,96.48
2023-02-03T08:05:36.288Z,96.17
2023-02-03T08:06:36.298Z,96.06
2023-02-03T08:07:36.253Z,96.11
2023-02-03T08:08:36.429Z,96.21
2023-02-03T08:09:36.246Z,96.21
2023-02-03T08:10:36.234Z,96.31
2023-02-03T08:11:36.286Z,96.38
2023-02-03T08:12:36.250Z,96.17
2023-02-03T08:13:36.244Z,96.38
2023-02-03T08:14:36.183Z,96.06
2023-02-03T08:15:36.274Z,96.06
2023-02-03T08:16:36.233Z,96.17
2023-02-03T08:17:36.159Z,96.06
2023-02-03T08:18:36.132Z,96.06
2023-02-03T08:19:36.505Z,95.95
2023-02-03T08:20:36.133Z,95.74
2023-02-03T08:21:36.142Z,95.95
2023-02-03T08:22:36.159Z,96.17
2023-02-03T08:23:36.083Z,96.27
2023-02-03T08:24:36.121Z,96.17
2023-02-03T08:25:36.075Z,96.17
2023-02-03T08:26:36.060Z,95.95
2023-02-03T08:27:36.046Z,95.95
2023-02-03T08:28:36.013Z,96.06
2023-02-03T08:29:36.017Z,95.95
2023-02-03T08:30:36.085Z,95.95
2023-02-03T08:31:36.125Z,95.85
2023-02-03T08:32:35.987Z,96.17
2023-02-03T08:33:35.975Z,96.06
2023-02-03T08:34:35.961Z,95.70
2023-02-03T08:35:35.982Z,95.42
2023-02-03T08:36:42.566Z,95.53
2023-02-03T08:37:35.942Z,95.85
2023-02-03T08:38:35.932Z,95.74
2023-02-03T08:39:35.924Z,95.85
2023-02-03T08:40:35.922Z,95.91
2023-02-03T08:41:35.883Z,95.81
2023-02-03T08:42:35.892Z,95.48
2023-02-03T08:43:35.856Z,95.48
2023-02-03T08:44:35.864Z,95.48
2023-02-03T08:45:35.951Z,95.48
2023-02-03T08:46:35.864Z,95.59
2023-02-03T08:47:35.805Z,95.48
2023-02-03T08:48:35.819Z,95.38
2023-02-03T08:49:35.796Z,95.38
2023-02-03T08:50:35.803Z,95.59
2023-02-03T08:51:35.789Z,95.81
2023-02-03T08:52:35.784Z,95.59
2023-02-03T08:53:35.770Z,95.70
2023-02-03T08:54:35.724Z,95.81
2023-02-03T08:55:35.830Z,95.48
2023-02-03T08:56:35.712Z,95.48
2023-02-03T08:57:35.753Z,95.59
2023-02-03T08:58:35.712Z,95.59
2023-02-03T08:59:35.693Z,95.38
2023-02-03T09:00:35.672Z,95.48
2023-02-03T09:01:35.663Z,95.48
2023-02-03T09:02:35.684Z,95.17
2023-02-03T09:03:35.646Z,95.38
2023-02-03T09:04:35.630Z,95.65
2023-02-03T09:05:35.629Z,95.76
2023-02-03T09:06:35.626Z,95.44
2023-02-03T09:07:35.621Z,95.34
2023-02-03T09:08:35.600Z,95.12
2023-02-03T09:09:35.576Z,95.23
2023-02-03T09:10:35.592Z,95.08
2023-02-03T09:11:35.582Z,94.65
2023-02-03T09:12:35.598Z,94.65
2023-02-03T09:13:37.111Z,94.87
2023-02-03T09:14:35.508Z,94.76
2023-02-03T09:15:35.520Z,95.08
2023-02-03T09:16:35.593Z,94.34
2023-02-03T09:17:35.504Z,94.34
2023-02-03T09:18:35.565Z,94.12
2023-02-03T09:19:36.639Z,94.12
2023-02-03T09:20:35.565Z,94.51
2023-02-03T09:21:42.903Z,94.19
2023-02-03T09:22:35.463Z,93.76
2023-02-03T09:23:35.461Z,93.87
2023-02-03T09:24:35.428Z,94.23
2023-02-03T09:25:35.458Z,94.19
2023-02-03T09:26:35.401Z,93.98
2023-02-03T09:27:35.382Z,93.98
2023-02-03T09:28:35.404Z,94.19
2023-02-03T09:29:35.371Z,94.29
2023-02-03T09:30:35.424Z,94.51
2023-02-03T09:31:35.417Z,94.29
2023-02-03T09:32:35.374Z,94.19
2023-02-03T09:33:35.324Z,94.51
2023-02-03T09:34:35.382Z,94.04
2023-02-03T09:35:35.307Z,93.62
2023-02-03T09:36:35.319Z,93.30
2023-02-03T09:37:35.296Z,93.30
2023-02-03T09:38:35.263Z,93.83
2023-02-03T09:39:35.263Z,93.72
2023-02-03T09:40:35.269Z,93.83
2023-02-03T09:41:35.256Z,93.62
2023-02-03T09:42:35.252Z,93.72
2023-02-03T09:43:35.694Z,93.51
2023-02-03T09:44:35.203Z,93.51
2023-02-03T09:45:35.272Z,93.62
2023-02-03T09:46:35.222Z,93.83
2023-02-03T09:47:35.193Z,93.40
2023-02-03T09:48:35.169Z,92.98
2023-02-03T09:49:35.131Z,93.30
2023-02-03T09:50:35.136Z,93.40
2023-02-03T09:51:35.133Z,93.08
2023-02-03T09:52:35.228Z,93.62
2023-02-03T09:53:35.182Z,93.83
2023-02-03T09:54:35.099Z,93.51
2023-02-03T09:55:35.069Z,93.19
2023-02-03T09:56:35.095Z,93.19
2023-02-03T09:57:35.060Z,93.19
2023-02-03T09:58:35.071Z,92.98
2023-02-03T09:59:35.067Z,93.08
2023-02-03T10:00:35.054Z,93.19
2023-02-03T10:01:35.071Z,93.19
2023-02-03T10:02:35.069Z,93.62
2023-02-03T10:03:34.993Z,93.62
2023-02-03T10:04:34.973Z,93.08
2023-02-03T10:05:34.975Z,92.98
2023-02-03T10:06:35.045Z,92.77
2023-02-03T10:07:35.017Z,93.08
2023-02-03T10:08:35.450Z,92.77
2023-02-03T10:09:35.595Z,92.66
2023-02-03T10:10:34.926Z,92.87
2023-02-03T10:11:34.923Z,92.87
2023-02-03T10:12:34.903Z,92.66
2023-02-03T10:13:36.614Z,92.83
2023-02-03T10:14:34.888Z,92.94
2023-02-03T10:15:34.929Z,92.83
2023-02-03T10:16:34.995Z,92.41
2023-02-03T10:17:34.851Z,92.30
2023-02-03T10:18:34.854Z,92.41
2023-02-03T10:19:34.846Z,92.19
2023-02-03T10:20:34.834Z,92.51
2023-02-03T10:21:34.804Z,92.30
2023-02-03T10:22:34.796Z,92.55
2023-02-03T10:23:34.781Z,92.77
2023-02-03T10:24:34.783Z,92.87
2023-02-03T10:25:34.781Z,93.08
2023-02-03T10:26:34.780Z,93.08
2023-02-03T10:27:34.759Z,93.04
2023-02-03T10:28:34.757Z,93.04
2023-02-03T10:29:34.751Z,93.15
2023-02-03T10:30:34.905Z,93.11
2023-02-03T10:31:34.878Z,92.94
2023-02-03T10:32:34.702Z,92.79
2023-02-03T10:33:34.703Z,92.68
2023-02-03T10:34:34.649Z,92.47
2023-02-03T10:35:34.681Z,92.36
2023-02-03T10:36:34.651Z,92.26
2023-02-03T10:37:34.630Z,92.19
2023-02-03T10:38:34.623Z,92.09
2023-02-03T10:39:34.621Z,92.30
2023-02-03T10:40:34.692Z,92.98
2023-02-03T10:41:34.813Z,93.40
2023-02-03T10:42:34.562Z,93.51
2023-02-03T10:43:34.557Z,93.51
2023-02-03T10:44:34.585Z,93.62
2023-02-03T10:45:34.540Z,93.57
2023-02-03T10:46:34.617Z,93.47
2023-02-03T10:47:34.534Z,93.36
2023-02-03T10:48:34.533Z,93.26
2023-02-03T10:49:34.484Z,93.15
2023-02-03T10:50:34.491Z,93.36
2023-02-03T10:51:34.570Z,93.15
2023-02-03T10:52:34.463Z,93.15
2023-02-03T10:53:34.996Z,93.47
2023-02-03T10:54:35.192Z,93.47
2023-02-03T10:55:34.451Z,93.36
2023-02-03T10:56:34.451Z,93.47
2023-02-03T10:57:34.456Z,93.47
2023-02-03T10:58:34.446Z,93.79
2023-02-03T10:59:34.396Z,93.47
2023-02-03T11:00:34.459Z,93.36
2023-02-03T11:01:34.441Z,93.15
2023-02-03T11:02:34.450Z,92.94
2023-02-03T11:03:34.345Z,93.19
2023-02-03T11:04:34.330Z,93.62
2023-02-03T11:05:34.624Z,93.72
2023-02-03T11:06:34.346Z,93.83
2023-02-03T11:07:34.305Z,93.57
2023-02-03T11:08:34.306Z,93.26
2023-02-03T11:09:34.332Z,93.04
2023-02-03T11:10:34.295Z,92.94
2023-02-03T11:11:34.304Z,92.83
2023-02-03T11:12:35.192Z,93.04
2023-02-03T11:13:34.248Z,93.40
2023-02-03T11:14:34.239Z,93.51
2023-02-03T11:15:34.272Z,93.72
2023-02-03T11:16:34.206Z,93.62
2023-02-03T11:17:34.334Z,93.93
2023-02-03T11:18:34.198Z,93.83
2023-02-03T11:19:34.200Z,93.72
2023-02-03T11:20:35.009Z,93.51
2023-02-03T11:21:34.181Z,93.55
2023-02-03T11:22:34.137Z,93.87
2023-02-03T11:23:34.171Z,94.19
2023-02-03T11:24:34.133Z,94.51
2023-02-03T11:25:34.105Z,94.51
2023-02-03T11:26:34.162Z,94.15
2023-02-03T11:27:34.623Z,93.72
2023-02-03T11:28:34.624Z,93.62
2023-02-03T11:29:34.058Z,93.51
2023-02-03T11:30:34.613Z,93.19
2023-02-03T11:31:34.210Z,93.19
2023-02-03T11:32:34.128Z,92.98
2023-02-03T11:33:34.039Z,92.94
2023-02-03T11:34:34.020Z,92.62
2023-02-03T11:35:34.006Z,92.41
2023-02-03T11:36:34.034Z,92.19
2023-02-03T11:37:34.009Z,92.30
2023-02-03T11:38:34.014Z,92.66
2023-02-03T11:39:33.971Z,93.08
2023-02-03T11:40:34.066Z,93.08
2023-02-03T11:41:34.009Z,93.19
2023-02-03T11:42:34.036Z,93.30
2023-02-03T11:43:33.921Z,93.02
2023-02-03T11:44:33.932Z,93.34
2023-02-03T11:45:34.646Z,93.34
2023-02-03T11:46:33.951Z,93.55
2023-02-03T11:47:33.890Z,93.55
2023-02-03T11:48:33.886Z,93.44
2023-02-03T11:49:33.861Z,93.44
2023-02-03T11:50:33.862Z,93.23
2023-02-03T11:51:33.842Z,93.13
2023-02-03T11:52:33.834Z,93.13
2023-02-03T11:53:35.165Z,93.19
2023-02-03T11:54:34.931Z,92.66
2023-02-03T11:55:33.824Z,92.24
2023-02-03T11:56:33.783Z,92.13
2023-02-03T11:57:33.762Z,92.24
2023-02-03T11:58:33.759Z,92.24
2023-02-03T11:59:33.755Z,91.81
2023-02-03T12:00:33.751Z,91.92
2023-02-03T12:01:33.782Z,91.71
2023-02-03T12:02:33.810Z,92.02
2023-02-03T12:03:33.704Z,92.02
2023-02-03T12:04:33.719Z,92.13
2023-02-03T12:05:33.683Z,92.45
2023-02-03T12:06:33.670Z,92.55
2023-02-03T12:07:33.718Z,92.55
2023-02-03T12:08:33.651Z,92.55
2023-02-03T12:09:33.645Z,92.45
2023-02-03T12:10:33.640Z,92.17
2023-02-03T12:11:33.682Z,92.17
2023-02-03T12:12:33.668Z,92.28
2023-02-03T12:13:33.618Z,92.17
2023-02-03T12:14:33.591Z,91.96
2023-02-03T12:15:33.585Z,91.64
2023-02-03T12:16:33.795Z,91.53
2023-02-03T12:17:33.598Z,91.64
2023-02-03T12:18:33.547Z,91.75
2023-02-03T12:19:33.530Z,91.53
2023-02-03T12:20:34.402Z,91.47
2023-02-03T12:21:33.562Z,91.47
2023-02-03T12:22:33.547Z,91.58
2023-02-03T12:23:33.522Z,91.36
2023-02-03T12:24:33.490Z,91.25
2023-02-03T12:25:33.524Z,91.47
2023-02-03T12:26:33.476Z,91.89
2023-02-03T12:27:33.561Z,92.47
2023-02-03T12:28:34.341Z,92.79
2023-02-03T12:29:33.432Z,92.89
2023-02-03T12:30:33.463Z,93.10
2023-02-03T12:31:33.454Z,93.21
2023-02-03T12:32:33.410Z,93.21
2023-02-03T12:33:33.407Z,93.42
2023-02-03T12:34:33.399Z,93.42
2023-02-03T12:35:33.382Z,93.42
2023-02-03T12:36:33.364Z,93.10
2023-02-03T12:37:33.347Z,92.89
2023-02-03T12:38:33.369Z,93.00
2023-02-03T12:39:33.328Z,93.10
2023-02-03T12:40:33.305Z,93.00
2023-02-03T12:41:33.423Z,93.00
2023-02-03T12:42:33.293Z,93.10
2023-02-03T12:43:33.273Z,92.89
2023-02-03T12:44:34.554Z,92.57
2023-02-03T12:45:33.275Z,92.14
2023-02-03T12:46:33.251Z,92.51
2023-02-03T12:47:33.250Z,92.40
2023-02-03T12:48:33.226Z,92.30
2023-02-03T12:49:33.239Z,92.08
2023-02-03T12:50:33.216Z,91.97
2023-02-03T12:51:33.184Z,91.97
2023-02-03T12:52:33.181Z,92.40